Time;durP1;ratioP1;P1;durP2;ratioP2;P2;SDS_P1;SDS_P2;PMS_P1;PMS_P2;Temp;Humidity;BMP_temperature;BMP_pressure;BME280_temperature;BME280_humidity;BME280_pressure;Samples;Min_cycle;Max_cycle;Signal;HPM_P1;HPM_P2
2021/09/15 00:00:24;;;;;;;9.23;7.97;;;19.30;99.90;;;;;;4960216;28;20034;-78
2021/09/15 00:02:50;;;;;;;10.45;7.07;;;19.40;99.90;;;;;;4962059;28;20047;-79
2021/09/15 00:05:17;;;;;;;10.25;7.78;;;19.50;99.90;;;;;;4975688;28;20046;-77
2021/09/15 00:07:43;;;;;;;8.25;7.05;;;19.50;99.90;;;;;;4975217;28;20035;-79
2021/09/15 00:10:09;;;;;;;8.55;7.65;;;19.50;99.90;;;;;;4968238;28;20035;-78
2021/09/15 00:12:36;;;;;;;10.43;7.35;;;19.60;99.90;;;;;;4965968;28;20031;-79
2021/09/15 00:15:02;;;;;;;9.55;7.22;;;19.60;99.90;;;;;;4964734;28;20035;-78
2021/09/15 00:17:29;;;;;;;9.73;7.43;;;19.70;99.90;;;;;;4959242;28;20027;-79
2021/09/15 00:19:55;;;;;;;11.93;7.78;;;19.70;99.90;;;;;;4956890;28;20042;-79
2021/09/15 00:22:21;;;;;;;10.20;7.55;;;19.70;99.90;;;;;;4957033;28;20043;-80
2021/09/15 00:24:47;;;;;;;8.55;7.00;;;19.70;99.90;;;;;;4954995;28;20042;-78
2021/09/15 00:27:14;;;;;;;8.25;7.28;;;19.80;99.90;;;;;;4956191;28;20039;-79
2021/09/15 00:29:40;;;;;;;8.57;7.05;;;19.80;99.90;;;;;;4956240;28;20051;-78
2021/09/15 00:32:07;;;;;;;8.38;6.60;;;19.70;99.90;;;;;;4965840;28;20042;-78
2021/09/15 00:34:33;;;;;;;8.68;7.07;;;19.80;99.90;;;;;;4963447;28;20031;-79
2021/09/15 00:37:00;;;;;;;9.32;7.28;;;19.80;99.90;;;;;;4956721;28;20035;-79
2021/09/15 00:39:26;;;;;;;8.32;7.25;;;19.70;99.90;;;;;;4957051;28;20027;-78
2021/09/15 00:41:53;;;;;;;9.63;7.18;;;19.70;99.90;;;;;;4955251;28;20412;-78
2021/09/15 00:44:20;;;;;;;8.45;7.15;;;19.70;99.90;;;;;;4955949;28;20038;-79
2021/09/15 00:46:46;;;;;;;7.20;6.22;;;19.70;99.90;;;;;;4955408;28;20055;-77
2021/09/15 00:49:13;;;;;;;8.32;6.80;;;19.80;99.90;;;;;;4955303;28;20035;-79
2021/09/15 00:51:41;;;;;;;8.02;6.55;;;19.70;99.90;;;;;;4955929;28;20481;-79
2021/09/15 00:54:10;;;;;;;8.77;7.28;;;19.70;99.90;;;;;;4957940;28;20044;-79
2021/09/15 00:56:40;;;;;;;13.15;7.07;;;19.70;99.90;;;;;;4960804;28;20138;-79
2021/09/15 00:59:07;;;;;;;8.50;6.70;;;19.70;99.90;;;;;;4977115;28;20504;-78
2021/09/15 01:01:34;;;;;;;7.05;6.32;;;19.80;99.90;;;;;;4961674;28;20047;-79
2021/09/15 01:04:04;;;;;;;8.07;5.97;;;19.90;99.90;;;;;;4942242;28;20047;-78
2021/09/15 01:06:35;;;;;;;6.88;6.18;;;19.80;99.90;;;;;;4976628;28;20058;-79
2021/09/15 01:09:06;;;;;;;10.77;6.50;;;19.90;99.90;;;;;;4957302;28;20035;-79
2021/09/15 01:11:38;;;;;;;6.65;5.50;;;19.80;99.90;;;;;;4955270;28;20043;-79
2021/09/15 01:14:30;;;;;;;6.72;6.03;;;19.90;99.90;;;;;;4953735;28;20035;-79
2021/09/15 01:17:16;;;;;;;7.35;6.00;;;19.80;99.90;;;;;;4925270;28;20509;-79
2021/09/15 01:20:01;;;;;;;6.78;5.72;;;19.80;99.90;;;;;;4956133;28;20385;-78
2021/09/15 01:23:03;;;;;;;6.63;5.40;;;19.80;99.90;;;;;;4905892;29;20669;-79
2021/09/15 01:25:53;;;;;;;7.55;6.28;;;19.80;99.90;;;;;;4951935;28;20390;-79
2021/09/15 01:28:45;;;;;;;7.57;6.60;;;19.70;99.90;;;;;;4933266;28;20039;-77
2021/09/15 01:31:15;;;;;;;7.22;6.00;;;19.60;99.90;;;;;;4954174;28;20505;-78
2021/09/15 01:33:41;;;;;;;8.52;7.43;;;19.60;99.90;;;;;;4938587;28;20047;-78
2021/09/15 01:36:08;;;;;;;7.72;5.97;;;19.50;99.90;;;;;;4953555;28;20062;-78
2021/09/15 01:38:34;;;;;;;7.43;6.03;;;19.50;99.90;;;;;;4959112;28;20023;-78
2021/09/15 01:41:00;;;;;;;8.68;6.57;;;19.50;99.90;;;;;;4941961;28;20046;-78
2021/09/15 01:43:28;;;;;;;7.78;6.07;;;19.50;99.90;;;;;;4957418;28;20055;-78
2021/09/15 01:45:54;;;;;;;7.47;5.93;;;19.50;99.90;;;;;;4957031;28;20059;-78
2021/09/15 01:48:22;;;;;;;8.23;6.47;;;19.50;99.90;;;;;;4957524;28;20046;-79
2021/09/15 01:50:49;;;;;;;6.80;5.43;;;19.50;99.90;;;;;;4965510;28;20046;-77
2021/09/15 01:53:15;;;;;;;8.45;5.72;;;19.50;99.90;;;;;;4963195;28;20401;-79
2021/09/15 01:55:41;;;;;;;6.38;5.70;;;19.50;99.90;;;;;;4959101;28;20058;-79
2021/09/15 01:58:30;;;;;;;7.00;6.10;;;19.50;99.90;;;;;;4956364;28;20054;-80
2021/09/15 02:01:11;;;;;;;6.88;5.70;;;19.60;99.90;;;;;;4941114;28;20043;-79
2021/09/15 02:03:55;;;;;;;8.02;6.80;;;19.60;99.90;;;;;;4957730;28;20054;-79
2021/09/15 02:06:54;;;;;;;7.03;6.20;;;19.50;99.90;;;;;;4939971;29;20047;-78
2021/09/15 02:09:37;;;;;;;8.57;6.38;;;19.50;99.90;;;;;;4956010;29;20051;-79
2021/09/15 02:12:15;;;;;;;8.20;6.40;;;19.40;99.90;;;;;;4969910;28;20048;-79
2021/09/15 02:14:42;;;;;;;6.97;5.82;;;19.40;99.90;;;;;;4956018;28;20051;-79
2021/09/15 02:17:09;;;;;;;7.07;5.20;;;19.50;99.90;;;;;;4966808;28;20511;-79
2021/09/15 02:19:36;;;;;;;7.35;5.82;;;19.50;99.90;;;;;;4964280;28;20039;-79
2021/09/15 02:22:23;;;;;;;7.35;5.80;;;19.60;99.90;;;;;;4947474;28;20047;-79
2021/09/15 02:25:08;;;;;;;7.32;5.68;;;19.70;99.90;;;;;;4957432;28;20038;-80
2021/09/15 02:27:54;;;;;;;6.75;5.82;;;19.80;99.90;;;;;;4957221;28;20035;-79
2021/09/15 02:30:33;;;;;;;8.35;5.85;;;20.00;99.90;;;;;;4958373;28;20039;-78
2021/09/15 02:33:07;;;;;;;6.40;5.47;;;20.00;99.90;;;;;;4940595;28;20054;-79
2021/09/15 02:35:54;;;;;;;7.38;5.25;;;20.10;99.90;;;;;;4955672;28;20054;-78
2021/09/15 02:38:34;;;;;;;6.68;5.20;;;20.10;99.90;;;;;;4956032;28;20039;-79
2021/09/15 02:41:23;;;;;;;10.68;5.65;;;20.10;99.90;;;;;;4948623;28;20485;-76
2021/09/15 02:44:00;;;;;;;6.55;4.97;;;20.20;99.90;;;;;;4954829;28;20047;-77
2021/09/15 02:46:46;;;;;;;7.15;5.38;;;20.20;99.90;;;;;;4936128;28;20481;-77
2021/09/15 02:49:29;;;;;;;7.63;5.63;;;20.20;99.90;;;;;;4955175;28;20047;-78
2021/09/15 02:52:07;;;;;;;5.18;4.65;;;20.20;99.90;;;;;;4955404;28;20047;-78
2021/09/15 02:54:44;;;;;;;6.18;5.30;;;20.10;99.90;;;;;;4956149;28;20043;-78
2021/09/15 02:57:19;;;;;;;9.10;5.95;;;20.10;99.90;;;;;;4955691;28;20039;-78
2021/09/15 02:59:49;;;;;;;7.07;5.47;;;20.00;99.90;;;;;;4956077;28;20043;-77
2021/09/15 03:02:41;;;;;;;7.70;6.25;;;20.00;99.90;;;;;;4964517;28;20049;-79
2021/09/15 03:05:36;;;;;;;8.63;6.07;;;20.00;99.90;;;;;;4907912;28;20056;-79
2021/09/15 03:08:20;;;;;;;8.75;6.20;;;20.00;99.90;;;;;;4961153;28;20054;-77
2021/09/15 03:10:46;;;;;;;7.03;6.07;;;19.90;99.90;;;;;;4965911;29;20047;-78
2021/09/15 03:13:13;;;;;;;7.15;5.90;;;19.90;99.90;;;;;;4964419;28;20046;-77
2021/09/15 03:15:39;;;;;;;8.35;5.88;;;19.90;99.90;;;;;;4952122;28;20417;-78
2021/09/15 03:18:05;;;;;;;8.48;6.13;;;19.80;99.90;;;;;;4956288;28;20034;-77
2021/09/15 03:20:32;;;;;;;8.30;6.60;;;19.80;99.90;;;;;;4957003;28;20042;-79
2021/09/15 03:22:59;;;;;;;8.95;5.93;;;19.70;99.90;;;;;;4954394;28;20382;-79
2021/09/15 03:25:25;;;;;;;5.70;5.10;;;19.70;99.90;;;;;;4955925;28;20044;-79
2021/09/15 03:27:52;;;;;;;8.40;6.28;;;19.70;99.90;;;;;;4954371;28;20477;-77
2021/09/15 03:30:18;;;;;;;8.95;6.47;;;19.60;99.90;;;;;;4956775;28;20034;-79
2021/09/15 03:32:44;;;;;;;7.82;5.70;;;19.60;99.90;;;;;;4954660;28;20054;-79
2021/09/15 03:35:11;;;;;;;8.00;6.80;;;19.60;99.90;;;;;;4938717;28;20645;-79
2021/09/15 03:37:38;;;;;;;9.25;5.97;;;19.50;99.90;;;;;;4955707;28;20036;-78
2021/09/15 03:40:06;;;;;;;7.57;6.60;;;19.50;99.90;;;;;;4954279;28;20050;-78
2021/09/15 03:42:33;;;;;;;9.77;7.07;;;19.50;99.90;;;;;;4955039;28;20051;-77
2021/09/15 03:44:59;;;;;;;7.57;6.43;;;19.50;99.90;;;;;;4973211;28;20069;-78
2021/09/15 03:47:25;;;;;;;7.22;5.53;;;19.50;99.90;;;;;;4958626;28;20046;-78
2021/09/15 03:49:52;;;;;;;7.57;6.18;;;19.50;99.90;;;;;;4954019;28;20054;-76
2021/09/15 03:52:18;;;;;;;9.20;6.85;;;19.40;99.90;;;;;;4967424;28;20043;-77
2021/09/15 03:54:44;;;;;;;7.07;6.03;;;19.40;99.90;;;;;;4947891;28;20047;-76
2021/09/15 03:57:11;;;;;;;8.32;6.35;;;19.40;99.90;;;;;;4953302;28;20046;-78
2021/09/15 03:59:38;;;;;;;10.88;5.97;;;19.40;99.90;;;;;;4966701;28;20047;-78
2021/09/15 04:02:07;;;;;;;6.45;5.63;;;19.40;99.90;;;;;;4956015;28;20043;-79
2021/09/15 04:04:33;;;;;;;7.65;5.97;;;19.40;99.90;;;;;;4954460;28;20047;-78
2021/09/15 04:07:00;;;;;;;8.48;6.20;;;19.40;99.90;;;;;;4953685;28;20054;-79
2021/09/15 04:09:26;;;;;;;7.50;6.38;;;19.40;99.90;;;;;;4954149;28;20046;-78
2021/09/15 04:11:53;;;;;;;10.27;6.82;;;19.30;99.90;;;;;;4953016;28;20039;-77
2021/09/15 04:14:19;;;;;;;6.97;6.18;;;19.30;99.90;;;;;;4953740;28;20035;-78
2021/09/15 04:16:45;;;;;;;7.55;6.53;;;19.30;99.90;;;;;;4956806;28;20050;-78
2021/09/15 04:19:12;;;;;;;9.93;6.80;;;19.30;99.90;;;;;;4957488;28;20039;-78
2021/09/15 04:21:42;;;;;;;7.35;5.97;;;19.30;99.90;;;;;;4961782;28;20393;-78
2021/09/15 04:32:26;;;;;;;8.15;6.95;;;19.40;99.90;;;;;;4940338;28;20043;-80
2021/09/15 04:34:53;;;;;;;9.10;7.07;;;19.40;99.90;;;;;;4966489;28;20027;-79
2021/09/15 04:37:19;;;;;;;8.02;6.60;;;19.40;99.90;;;;;;4961774;28;20047;-79
2021/09/15 04:39:46;;;;;;;8.43;6.57;;;19.40;99.90;;;;;;4955371;29;20055;-79
2021/09/15 04:42:12;;;;;;;10.18;7.05;;;19.50;99.90;;;;;;4967294;28;20581;-80
2021/09/15 04:44:39;;;;;;;7.85;6.45;;;19.50;99.90;;;;;;4955536;28;20039;-80
2021/09/15 04:47:06;;;;;;;7.20;6.28;;;19.50;99.90;;;;;;4952728;28;20054;-79
2021/09/15 04:49:32;;;;;;;9.27;5.80;;;19.50;99.90;;;;;;4953353;29;20040;-79
2021/09/15 04:51:59;;;;;;;8.63;6.40;;;19.40;99.90;;;;;;4952997;28;20394;-78
2021/09/15 04:54:28;;;;;;;6.43;5.72;;;19.40;99.90;;;;;;4957723;28;20040;-79
2021/09/15 04:56:55;;;;;;;7.45;6.00;;;19.40;99.90;;;;;;4934064;29;20039;-79
2021/09/15 04:59:24;;;;;;;9.23;5.80;;;19.40;99.90;;;;;;4966192;28;20058;-80
2021/09/15 05:01:52;;;;;;;7.88;6.82;;;19.40;99.90;;;;;;4966992;28;20055;-79
2021/09/15 05:04:18;;;;;;;9.50;6.90;;;19.40;99.90;;;;;;4966699;28;20056;-80
2021/09/15 05:06:55;;;;;;;10.50;7.43;;;19.30;99.90;;;;;;4968959;28;20059;-79
2021/09/15 05:09:21;;;;;;;7.60;5.95;;;19.30;99.90;;;;;;4935107;28;20044;-79
2021/09/15 05:11:49;;;;;;;11.15;7.43;;;19.30;99.90;;;;;;4937306;28;20047;-79
2021/09/15 05:14:16;;;;;;;12.77;8.23;;;19.20;99.90;;;;;;4954052;28;20047;-79
2021/09/15 05:16:43;;;;;;;11.43;7.05;;;19.20;99.90;;;;;;4953586;28;20124;-79
2021/09/15 05:19:09;;;;;;;11.60;8.32;;;19.20;99.90;;;;;;4952988;28;20048;-77
2021/09/15 05:21:35;;;;;;;10.23;7.70;;;19.20;99.90;;;;;;4939109;28;20378;-78
2021/09/15 05:24:02;;;;;;;9.35;7.45;;;19.20;99.90;;;;;;4942573;28;20047;-78
2021/09/15 05:26:29;;;;;;;8.52;7.22;;;19.20;99.90;;;;;;4938514;28;20047;-78
2021/09/15 05:28:55;;;;;;;10.38;7.50;;;19.10;99.90;;;;;;4938255;29;20062;-78
2021/09/15 05:31:22;;;;;;;10.90;7.82;;;19.10;99.90;;;;;;4973899;28;20394;-76
2021/09/15 05:33:48;;;;;;;12.82;8.68;;;19.10;99.90;;;;;;4946109;28;20035;-78
2021/09/15 05:36:16;;;;;;;12.00;7.93;;;19.00;99.90;;;;;;4940202;28;20047;-77
2021/09/15 05:38:43;;;;;;;10.60;7.63;;;18.90;99.90;;;;;;4939742;28;20141;-76
2021/09/15 05:41:13;;;;;;;10.18;8.02;;;18.90;99.90;;;;;;4924866;29;20047;-76
2021/09/15 05:43:39;;;;;;;12.07;9.10;;;18.90;99.90;;;;;;4939160;28;20071;-77
2021/09/15 05:46:09;;;;;;;13.00;8.80;;;18.90;99.90;;;;;;4970881;28;20512;-76
2021/09/15 05:48:36;;;;;;;12.50;9.88;;;18.90;99.90;;;;;;4950101;28;20040;-76
2021/09/15 05:51:02;;;;;;;11.82;9.60;;;18.90;99.90;;;;;;4937917;29;20385;-77
2021/09/15 05:53:28;;;;;;;14.75;11.13;;;18.90;99.90;;;;;;4923117;29;20055;-77
2021/09/15 05:55:55;;;;;;;11.80;9.77;;;18.90;99.90;;;;;;4938754;28;20066;-77
2021/09/15 05:58:22;;;;;;;13.70;9.27;;;18.80;99.90;;;;;;4938066;28;20430;-77
2021/09/15 06:00:48;;;;;;;13.65;9.90;;;18.80;99.90;;;;;;4939062;28;20048;-77
2021/09/15 06:03:17;;;;;;;13.52;10.23;;;18.80;99.90;;;;;;4953749;28;20055;-77
2021/09/15 06:05:56;;;;;;;10.90;9.13;;;18.80;99.90;;;;;;4944842;28;20048;-77
2021/09/15 06:08:24;;;;;;;12.60;9.85;;;18.80;99.90;;;;;;4939138;28;20063;-77
2021/09/15 06:10:51;;;;;;;12.63;9.25;;;18.70;99.90;;;;;;4953049;28;20497;-77
2021/09/15 06:13:17;;;;;;;14.95;11.50;;;18.70;99.90;;;;;;4938907;28;20055;-78
2021/09/15 06:15:43;;;;;;;10.63;8.63;;;18.80;99.90;;;;;;4954456;28;20064;-79
2021/09/15 06:18:09;;;;;;;17.33;11.25;;;18.80;99.90;;;;;;4953641;28;20043;-79
2021/09/15 06:21:11;;;;;;;11.85;8.90;;;18.80;99.90;;;;;;4952711;28;20048;-79
2021/09/15 06:23:58;;;;;;;15.82;10.20;;;18.70;99.90;;;;;;4952471;28;20138;-79
2021/09/15 06:26:26;;;;;;;12.15;9.15;;;18.80;99.90;;;;;;4953838;28;20039;-78
2021/09/15 06:28:55;;;;;;;13.52;10.27;;;18.80;99.90;;;;;;4937598;28;20098;-76
2021/09/15 06:31:22;;;;;;;15.88;11.40;;;18.90;99.90;;;;;;4938073;28;20043;-79
2021/09/15 06:33:52;;;;;;;13.95;10.65;;;18.80;99.90;;;;;;4939163;28;20032;-80
2021/09/15 06:36:19;;;;;;;15.35;10.43;;;18.90;99.90;;;;;;4939068;28;20032;-78
2021/09/15 06:38:46;;;;;;;13.38;10.75;;;18.80;99.90;;;;;;4948724;28;20038;-78
2021/09/15 06:41:12;;;;;;;14.95;10.63;;;18.80;99.90;;;;;;4936934;28;20024;-78
2021/09/15 06:43:39;;;;;;;15.70;10.70;;;18.80;99.90;;;;;;4937301;28;20051;-78
2021/09/15 06:46:05;;;;;;;13.85;11.10;;;18.80;99.90;;;;;;4937129;28;20032;-78
2021/09/15 06:48:31;;;;;;;15.75;12.30;;;18.80;99.90;;;;;;4938109;28;20051;-78
2021/09/15 06:50:57;;;;;;;17.55;12.40;;;18.80;99.90;;;;;;4936737;28;20039;-78
2021/09/15 06:53:24;;;;;;;16.95;11.77;;;18.90;99.90;;;;;;4941012;28;20058;-77
2021/09/15 06:55:51;;;;;;;15.75;11.48;;;18.90;99.90;;;;;;4957051;28;20393;-79
2021/09/15 06:58:18;;;;;;;14.95;12.43;;;18.80;99.90;;;;;;4957756;28;20046;-78
2021/09/15 07:00:45;;;;;;;14.23;11.38;;;18.90;99.90;;;;;;4967084;28;20047;-77
2021/09/15 07:03:11;;;;;;;18.50;12.55;;;18.80;99.90;;;;;;4967190;28;20031;-78
2021/09/15 07:05:37;;;;;;;16.63;11.63;;;18.90;99.90;;;;;;4965505;28;20508;-78
2021/09/15 07:08:05;;;;;;;17.02;11.75;;;18.90;99.90;;;;;;4969012;28;20054;-78
2021/09/15 07:10:33;;;;;;;14.90;11.00;;;19.00;99.90;;;;;;4969137;28;20023;-78
2021/09/15 07:12:59;;;;;;;15.20;11.45;;;19.00;99.90;;;;;;4983870;28;20031;-78
2021/09/15 07:15:26;;;;;;;16.77;12.52;;;19.00;99.90;;;;;;4985860;28;20042;-77
2021/09/15 07:17:53;;;;;;;17.90;12.45;;;19.00;99.90;;;;;;4979069;28;20042;-77
2021/09/15 07:20:21;;;;;;;15.15;10.70;;;19.00;99.90;;;;;;4973875;28;20030;-79
2021/09/15 07:22:47;;;;;;;15.48;11.18;;;19.10;99.90;;;;;;4958663;28;20058;-79
2021/09/15 07:25:14;;;;;;;16.67;11.75;;;19.00;99.90;;;;;;4977554;28;20034;-78
2021/09/15 07:27:41;;;;;;;18.83;11.52;;;19.10;99.90;;;;;;4975249;28;20031;-78
2021/09/15 07:30:09;;;;;;;20.13;12.27;;;19.30;99.90;;;;;;4974097;28;20031;-79
2021/09/15 07:32:35;;;;;;;15.30;10.32;;;19.40;99.90;;;;;;4974784;28;20027;-78
2021/09/15 07:35:02;;;;;;;14.85;9.73;;;19.30;99.90;;;;;;4974395;28;20053;-77
2021/09/15 07:37:29;;;;;;;14.15;9.50;;;19.30;99.90;;;;;;4975962;28;20027;-77
2021/09/15 07:39:56;;;;;;;12.35;8.88;;;19.20;99.90;;;;;;4992440;28;20080;-78
2021/09/15 07:42:24;;;;;;;10.68;8.18;;;19.20;99.90;;;;;;4992320;28;20026;-78
2021/09/15 07:44:51;;;;;;;14.48;8.77;;;19.30;99.90;;;;;;4968382;28;20054;-78
2021/09/15 07:47:18;;;;;;;12.43;8.25;;;19.30;99.90;;;;;;4966103;28;20039;-77
2021/09/15 07:49:45;;;;;;;12.77;9.18;;;19.40;99.90;;;;;;4976907;28;20038;-78
2021/09/15 07:52:12;;;;;;;11.93;7.75;;;19.50;99.90;;;;;;4955056;28;20045;-78
2021/09/15 07:54:39;;;;;;;11.65;8.50;;;19.50;99.90;;;;;;4969168;28;20047;-78
2021/09/15 07:57:05;;;;;;;9.23;6.72;;;19.60;99.90;;;;;;4972773;28;20396;-77
2021/09/15 07:59:31;;;;;;;8.02;6.68;;;19.60;99.90;;;;;;4970838;28;20046;-77
2021/09/15 08:01:58;;;;;;;8.13;6.30;;;19.70;99.90;;;;;;4972300;28;20023;-78
2021/09/15 08:04:25;;;;;;;9.30;7.10;;;19.80;99.90;;;;;;4972065;28;20062;-78
2021/09/15 08:06:51;;;;;;;9.95;6.45;;;19.80;99.90;;;;;;4971999;28;20038;-78
2021/09/15 08:09:17;;;;;;;8.68;6.13;;;19.80;99.90;;;;;;4958223;28;20397;-78
2021/09/15 08:11:43;;;;;;;9.93;6.30;;;19.60;99.90;;;;;;4955076;28;20031;-78
2021/09/15 08:14:10;;;;;;;8.13;5.45;;;19.60;99.90;;;;;;4954380;28;20043;-79
2021/09/15 08:16:38;;;;;;;9.40;5.40;;;19.60;99.90;;;;;;4958181;28;20027;-79
2021/09/15 08:19:04;;;;;;;9.77;4.90;;;19.50;99.90;;;;;;4954279;28;20401;-78
2021/09/15 08:21:30;;;;;;;10.55;5.63;;;19.40;99.90;;;;;;4954660;28;20027;-78
2021/09/15 08:23:56;;;;;;;8.15;4.75;;;19.40;99.90;;;;;;4954437;28;20043;-78
2021/09/15 08:26:23;;;;;;;7.50;5.20;;;19.40;99.90;;;;;;4954870;28;20035;-79
2021/09/15 08:28:49;;;;;;;7.70;4.32;;;19.30;99.90;;;;;;4954676;28;20042;-78
2021/09/15 08:31:16;;;;;;;5.47;3.65;;;19.20;99.90;;;;;;4954616;28;20035;-78
2021/09/15 08:33:42;;;;;;;6.03;4.35;;;19.10;99.90;;;;;;4965071;28;20039;-78
2021/09/15 08:36:08;;;;;;;6.90;4.20;;;19.10;99.90;;;;;;4963068;28;20057;-79
2021/09/15 08:38:35;;;;;;;14.73;4.43;;;19.20;99.90;;;;;;4968589;28;20035;-78
2021/09/15 08:41:01;;;;;;;4.80;3.75;;;19.10;99.90;;;;;;4961361;28;20035;-79
2021/09/15 08:43:29;;;;;;;6.45;3.97;;;19.20;99.90;;;;;;4951462;28;20116;-79
2021/09/15 08:46:00;;;;;;;6.07;4.32;;;19.10;99.90;;;;;;4973339;28;20023;-79
2021/09/15 08:48:27;;;;;;;5.93;4.20;;;19.10;99.90;;;;;;4970847;28;20039;-79
2021/09/15 08:50:54;;;;;;;8.88;4.65;;;19.10;99.90;;;;;;4955114;28;20045;-79
2021/09/15 08:53:20;;;;;;;5.45;3.78;;;19.20;99.90;;;;;;4969282;28;20036;-79
2021/09/15 08:55:47;;;;;;;6.22;4.15;;;19.30;99.90;;;;;;4969667;28;20046;-79
2021/09/15 08:58:14;;;;;;;5.47;2.65;;;19.30;99.90;;;;;;4950886;28;20087;-78
2021/09/15 09:00:46;;;;;;;7.50;3.08;;;19.30;99.90;;;;;;4958329;28;20043;-80
2021/09/15 09:03:12;;;;;;;4.47;3.03;;;19.30;99.90;;;;;;4954604;28;20050;-79
2021/09/15 09:05:39;;;;;;;5.45;2.92;;;19.40;99.90;;;;;;4952646;28;20051;-79
2021/09/15 09:08:23;;;;;;;4.63;2.65;;;19.40;99.90;;;;;;4953722;28;20028;-79
2021/09/15 09:10:52;;;;;;;5.70;3.75;;;19.50;99.90;;;;;;4954208;28;20032;-80
2021/09/15 09:13:19;;;;;;;4.57;3.25;;;19.50;99.90;;;;;;4953899;28;20032;-78
2021/09/15 09:15:45;;;;;;;5.22;2.75;;;19.60;99.90;;;;;;4954041;28;20358;-81
2021/09/15 09:18:18;;;;;;;7.57;2.67;;;19.50;99.90;;;;;;4953563;28;20601;-79
2021/09/15 09:20:44;;;;;;;4.45;3.22;;;19.50;99.90;;;;;;4952452;28;20054;-80
2021/09/15 09:23:17;;;;;;;3.95;2.80;;;19.50;99.90;;;;;;4952232;28;20051;-80
2021/09/15 09:25:58;;;;;;;5.05;3.67;;;19.60;99.90;;;;;;4951810;28;20035;-80
2021/09/15 09:28:33;;;;;;;5.40;3.10;;;19.50;99.90;;;;;;4962426;28;20473;-80
2021/09/15 09:31:02;;;;;;;3.78;3.13;;;19.60;99.90;;;;;;4966971;28;20042;-80
2021/09/15 09:33:34;;;;;;;4.97;3.63;;;19.50;99.90;;;;;;4953251;28;20036;-81
2021/09/15 09:36:07;;;;;;;4.63;3.03;;;19.40;99.90;;;;;;4950376;28;20119;-79
2021/09/15 09:38:36;;;;;;;5.80;4.20;;;19.30;99.90;;;;;;4956306;28;20042;-82
2021/09/15 09:41:15;;;;;;;8.07;4.22;;;19.30;99.90;;;;;;4953387;28;20042;-80
2021/09/15 09:43:55;;;;;;;4.40;3.30;;;19.20;99.90;;;;;;4956178;28;20047;-78
2021/09/15 09:46:34;;;;;;;6.10;4.45;;;19.10;99.90;;;;;;4952773;28;20047;-79
2021/09/15 09:49:05;;;;;;;5.47;3.67;;;19.10;99.90;;;;;;4953884;28;20058;-78
2021/09/15 09:51:33;;;;;;;5.93;3.72;;;19.10;99.90;;;;;;4951578;28;20062;-79
2021/09/15 09:54:13;;;;;;;4.28;3.00;;;19.20;99.90;;;;;;4965817;28;20054;-78
2021/09/15 09:56:44;;;;;;;3.95;3.22;;;19.40;99.90;;;;;;4957096;28;20043;-81
2021/09/15 09:59:12;;;;;;;5.00;3.33;;;19.40;99.90;;;;;;4960589;28;20038;-79
2021/09/15 10:02:01;;;;;;;5.93;2.75;;;19.40;99.90;;;;;;4960804;28;20027;-79
2021/09/15 10:04:28;;;;;;;6.75;3.38;;;19.40;99.90;;;;;;4959651;28;20063;-77
2021/09/15 10:06:56;;;;;;;4.05;2.92;;;19.60;99.90;;;;;;4974689;28;20424;-78
2021/09/15 10:09:23;;;;;;;3.83;2.58;;;19.70;99.90;;;;;;4960551;28;20101;-77
2021/09/15 10:11:50;;;;;;;3.13;2.53;;;19.60;99.90;;;;;;4969335;28;20050;-78
2021/09/15 10:14:18;;;;;;;4.65;3.28;;;19.70;99.90;;;;;;4976850;28;20038;-78
2021/09/15 10:16:51;;;;;;;3.25;2.72;;;19.80;99.90;;;;;;4958746;28;20031;-78
2021/09/15 10:19:24;;;;;;;4.57;2.83;;;19.80;99.90;;;;;;4956602;28;20050;-77
2021/09/15 10:22:00;;;;;;;4.18;2.70;;;19.90;99.90;;;;;;4957435;28;20367;-78
2021/09/15 10:24:48;;;;;;;3.70;2.58;;;19.90;99.90;;;;;;4940921;28;20043;-78
2021/09/15 10:27:16;;;;;;;3.28;2.00;;;20.00;99.90;;;;;;4964480;28;20035;-77
2021/09/15 10:29:43;;;;;;;3.03;2.03;;;19.90;99.90;;;;;;4962374;28;20031;-79
2021/09/15 10:32:11;;;;;;;3.03;1.90;;;20.00;99.90;;;;;;4963902;28;20466;-78
2021/09/15 10:34:38;;;;;;;2.70;2.13;;;20.00;99.90;;;;;;4958833;28;20043;-78
2021/09/15 10:37:24;;;;;;;2.47;1.65;;;20.10;99.90;;;;;;4957083;28;20032;-79
2021/09/15 10:39:55;;;;;;;3.35;1.88;;;20.20;99.90;;;;;;4958187;28;20034;-78
2021/09/15 10:42:34;;;;;;;2.65;1.60;;;20.40;99.90;;;;;;4957840;28;20043;-79
2021/09/15 10:45:22;;;;;;;4.38;2.10;;;20.50;99.90;;;;;;4957465;28;20462;-79
2021/09/15 10:47:54;;;;;;;2.50;1.67;;;20.60;99.90;;;;;;4962423;28;20030;-79
2021/09/15 10:50:37;;;;;;;2.45;1.85;;;20.80;99.90;;;;;;4954254;28;20043;-83
2021/09/15 10:53:03;;;;;;;4.63;1.90;;;20.90;99.90;;;;;;4956735;28;20465;-77
2021/09/15 10:55:39;;;;;;;2.17;1.67;;;20.90;99.90;;;;;;4957020;28;20050;-77
2021/09/15 10:58:17;;;;;;;2.47;1.83;;;20.90;99.90;;;;;;4955716;28;20489;-79
2021/09/15 11:01:04;;;;;;;3.10;1.83;;;20.90;99.90;;;;;;4955192;28;20051;-79
2021/09/15 11:03:31;;;;;;;4.60;2.10;;;21.00;99.90;;;;;;4956217;28;20050;-76
2021/09/15 11:06:07;;;;;;;2.72;2.00;;;21.20;99.90;;;;;;4956515;28;20062;-76
2021/09/15 11:08:49;;;;;;;3.22;1.70;;;21.30;99.90;;;;;;4957434;28;20042;-76
2021/09/15 11:11:21;;;;;;;2.55;1.60;;;21.60;99.90;;;;;;4956298;28;20039;-76
2021/09/15 11:13:58;;;;;;;2.08;1.85;;;21.80;99.90;;;;;;4969675;28;20487;-75
2021/09/15 11:16:29;;;;;;;2.05;1.77;;;21.90;99.90;;;;;;4967535;28;20481;-76
2021/09/15 11:18:57;;;;;;;2.90;2.08;;;21.90;99.90;;;;;;4957617;28;20381;-77
2021/09/15 11:21:24;;;;;;;3.58;2.17;;;22.30;99.90;;;;;;4957465;28;20043;-76
2021/09/15 11:24:00;;;;;;;3.05;1.88;;;22.30;99.90;;;;;;4988867;28;20042;-76
2021/09/15 11:26:59;;;;;;;2.65;1.75;;;22.40;99.90;;;;;;4956847;28;20035;-76
2021/09/15 11:29:53;;;;;;;4.18;2.13;;;22.50;99.90;;;;;;4954245;28;20396;-76
2021/09/15 11:32:21;;;;;;;1.90;1.58;;;22.20;99.90;;;;;;4955894;28;20027;-77
2021/09/15 11:34:50;;;;;;;2.05;1.20;;;22.20;99.90;;;;;;4938818;29;20492;-76
2021/09/15 11:37:19;;;;;;;2.20;1.50;;;22.20;99.90;;;;;;4954737;28;20381;-78
2021/09/15 11:39:52;;;;;;;2.28;1.58;;;22.20;99.90;;;;;;4959840;28;20058;-77
2021/09/15 11:42:27;;;;;;;3.80;1.77;;;22.20;99.90;;;;;;4967108;28;20027;-76
2021/09/15 11:44:54;;;;;;;2.58;1.48;;;22.20;99.90;;;;;;4961547;28;20047;-78
2021/09/15 11:47:25;;;;;;;3.08;1.70;;;22.00;99.90;;;;;;4957069;28;20031;-78
2021/09/15 11:49:52;;;;;;;3.08;1.90;;;22.10;99.90;;;;;;4957280;28;20042;-78
2021/09/15 11:52:19;;;;;;;2.25;1.60;;;22.10;99.90;;;;;;4956443;28;20038;-77
2021/09/15 11:54:50;;;;;;;1.88;1.35;;;22.10;99.90;;;;;;4971097;28;20062;-78
2021/09/15 11:57:18;;;;;;;2.90;1.60;;;22.00;99.90;;;;;;4956981;28;20035;-78
2021/09/15 11:59:44;;;;;;;1.65;1.08;;;22.10;99.90;;;;;;4956381;28;20139;-78
2021/09/15 12:02:14;;;;;;;2.28;1.30;;;22.20;99.90;;;;;;4959481;28;20027;-79
2021/09/15 12:04:45;;;;;;;2.25;1.33;;;22.20;99.90;;;;;;4960513;28;20047;-79
2021/09/15 12:07:15;;;;;;;1.58;1.20;;;22.30;99.90;;;;;;4962584;28;20035;-79
2021/09/15 12:09:42;;;;;;;2.00;1.30;;;22.30;99.90;;;;;;4965823;28;20482;-78
2021/09/15 12:12:12;;;;;;;3.15;1.63;;;22.30;99.90;;;;;;4968174;28;20037;-78
2021/09/15 12:14:38;;;;;;;1.63;1.00;;;22.20;99.90;;;;;;4961230;28;20031;-79
2021/09/15 12:17:06;;;;;;;2.35;1.33;;;22.10;99.90;;;;;;4956100;29;20470;-78
2021/09/15 12:19:32;;;;;;;3.10;1.70;;;22.20;99.90;;;;;;4957031;28;20035;-79
2021/09/15 12:21:59;;;;;;;3.03;1.52;;;22.30;99.90;;;;;;4956662;28;20028;-79
2021/09/15 12:24:26;;;;;;;2.55;1.63;;;22.40;99.90;;;;;;4957304;28;20043;-79
2021/09/15 12:26:53;;;;;;;3.05;1.73;;;22.60;99.90;;;;;;4976569;28;20042;-79
2021/09/15 12:29:21;;;;;;;1.90;1.50;;;22.60;99.90;;;;;;4963022;28;20050;-79
2021/09/15 12:31:59;;;;;;;2.60;1.60;;;22.60;99.90;;;;;;4964715;28;20035;-79
2021/09/15 12:34:32;;;;;;;2.65;1.45;;;22.80;99.90;;;;;;4975347;28;20049;-82
2021/09/15 12:37:13;;;;;;;3.50;1.42;;;23.00;99.90;;;;;;4960535;28;20031;-77
2021/09/15 12:39:49;;;;;;;;;;;23.00;99.90;;;;;;4966357;28;20031;-78
2021/09/15 12:42:18;;;;;;;3.00;1.95;;;22.90;99.90;;;;;;4956890;28;19930;-78
2021/09/15 12:44:44;;;;;;;2.10;1.42;;;22.90;99.90;;;;;;4955580;28;20054;-77
2021/09/15 12:47:11;;;;;;;3.28;1.73;;;22.90;99.90;;;;;;4955412;28;20035;-77
2021/09/15 12:49:40;;;;;;;2.75;1.65;;;23.10;99.90;;;;;;4955781;28;20031;-78
2021/09/15 12:52:16;;;;;;;3.15;1.67;;;23.20;99.90;;;;;;4959801;28;20042;-77
2021/09/15 12:54:53;;;;;;;2.55;1.60;;;23.30;99.90;;;;;;4959984;28;20058;-78
2021/09/15 12:57:28;;;;;;;2.58;1.70;;;23.10;99.90;;;;;;4956124;28;20031;-79
2021/09/15 13:00:15;;;;;;;3.92;1.50;;;23.00;99.90;;;;;;4956400;28;20046;-79
2021/09/15 13:02:53;;;;;;;3.10;2.38;;;22.90;99.90;;;;;;4955418;28;20027;-78
2021/09/15 13:05:20;;;;;;;2.72;1.95;;;22.90;99.90;;;;;;4975514;28;20063;-78
2021/09/15 13:07:47;;;;;;;2.30;1.70;;;22.90;99.90;;;;;;4956365;28;20039;-78